VOE185 LFLL-LFBI
Flight info
| Callsign | VOE185 |
|---|---|
| Flight time | 0h 44m |
| Altitude | 28000 |
| Route | BELEP H38 TIS DCT VALKU DCT LARON DCT GUSON/N0347F180 R66 BALAN A34 OLINO |
| Aircraft | A320/M-SDE3FGHIRWY/LB1 |
Departure
| Time | 2026-04-30 22:13 |
|---|---|
| Airport | Lyon Saint-Exupéry Airport (LFLL) |
Arrival
| Time | 2026-04-30 22:57 |
|---|---|
| Airport | Poitiers-Biard Airport (LFBI) |
| Time | Latitude | Longitude | Altitude | Speed | Heading |
|---|---|---|---|---|---|
| 2026-04-30 21:57 | 45.72215 | 5.08187 | 797 ft | 0 kts | 249° |
| 2026-04-30 22:04 | 45.72225 | 5.08240 | 797 ft | 3 kts | 266° |
| 2026-04-30 22:05 | 45.72225 | 5.08269 | 797 ft | 3 kts | 281° |
| 2026-04-30 22:05 | 45.72219 | 5.08297 | 797 ft | 3 kts | 303° |
| 2026-04-30 22:05 | 45.72206 | 5.08317 | 798 ft | 3 kts | 340° |
| 2026-04-30 22:05 | 45.72199 | 5.08320 | 798 ft | 0 kts | 353° |
| 2026-04-30 22:07 | 45.72207 | 5.08319 | 798 ft | 2 kts | 353° |
| 2026-04-30 22:08 | 45.72225 | 5.08317 | 798 ft | 5 kts | 0° |
| 2026-04-30 22:08 | 45.72259 | 5.08357 | 799 ft | 8 kts | 72° |
| 2026-04-30 22:08 | 45.72309 | 5.08418 | 799 ft | 15 kts | 3° |
| 2026-04-30 22:08 | 45.72459 | 5.08400 | 796 ft | 28 kts | 355° |
| 2026-04-30 22:09 | 45.72672 | 5.08375 | 791 ft | 33 kts | 355° |
| 2026-04-30 22:09 | 45.72902 | 5.08347 | 790 ft | 34 kts | 355° |
| 2026-04-30 22:09 | 45.73140 | 5.08317 | 785 ft | 35 kts | 355° |
| 2026-04-30 22:09 | 45.73389 | 5.08288 | 780 ft | 37 kts | 355° |
| 2026-04-30 22:10 | 45.73645 | 5.08256 | 779 ft | 37 kts | 355° |
| 2026-04-30 22:10 | 45.73907 | 5.08224 | 776 ft | 38 kts | 355° |
| 2026-04-30 22:10 | 45.74072 | 5.08232 | 772 ft | 20 kts | 13° |
| 2026-04-30 22:10 | 45.74229 | 5.08284 | 772 ft | 25 kts | 13° |
| 2026-04-30 22:11 | 45.74603 | 5.08412 | 768 ft | 17 kts | 30° |
| 2026-04-30 22:11 | 45.74646 | 5.08543 | 768 ft | 15 kts | 104° |
| 2026-04-30 22:11 | 45.74591 | 5.08606 | 770 ft | 9 kts | 176° |
| 2026-04-30 22:12 | 45.74425 | 5.08626 | 772 ft | 53 kts | 175° |
| 2026-04-30 22:12 | 45.73826 | 5.08699 | 774 ft | 117 kts | 175° |
| 2026-04-30 22:12 | 45.72843 | 5.08816 | 796 ft | 165 kts | 175° |
| 2026-04-30 22:12 | 45.71688 | 5.08943 | 1375 ft | 166 kts | 174° |
| 2026-04-30 22:13 | 45.70557 | 5.09080 | 2081 ft | 165 kts | 176° |
| 2026-04-30 22:13 | 45.69399 | 5.09224 | 2689 ft | 171 kts | 177° |
| 2026-04-30 22:13 | 45.68136 | 5.09377 | 2999 ft | 194 kts | 178° |
| 2026-04-30 22:13 | 45.66709 | 5.09547 | 3287 ft | 219 kts | 177° |
| 2026-04-30 22:14 | 45.65132 | 5.09735 | 3847 ft | 232 kts | 177° |
| 2026-04-30 22:14 | 45.63504 | 5.09935 | 4675 ft | 236 kts | 176° |
| 2026-04-30 22:14 | 45.61850 | 5.10224 | 5403 ft | 247 kts | 168° |
| 2026-04-30 22:14 | 45.60203 | 5.11174 | 6000 ft | 263 kts | 149° |
| 2026-04-30 22:15 | 45.58784 | 5.12858 | 6775 ft | 269 kts | 130° |
| 2026-04-30 22:15 | 45.57701 | 5.15067 | 7572 ft | 274 kts | 124° |
| 2026-04-30 22:15 | 45.56311 | 5.16900 | 8404 ft | 277 kts | 154° |
| 2026-04-30 22:15 | 45.54424 | 5.17431 | 9251 ft | 282 kts | 182° |
| 2026-04-30 22:16 | 45.52516 | 5.16756 | 10077 ft | 288 kts | 204° |
| 2026-04-30 22:16 | 45.50919 | 5.15005 | 10818 ft | 296 kts | 229° |
| 2026-04-30 22:17 | 45.50741 | 5.06258 | 12168 ft | 342 kts | 293° |
| 2026-04-30 22:17 | 45.51718 | 5.03110 | 12743 ft | 350 kts | 294° |
| 2026-04-30 22:17 | 45.53796 | 4.96720 | 14133 ft | 359 kts | 294° |
| 2026-04-30 22:18 | 45.54839 | 4.93466 | 14753 ft | 362 kts | 294° |
| 2026-04-30 22:18 | 45.56905 | 4.86833 | 15992 ft | 369 kts | 293° |
| 2026-04-30 22:19 | 45.58979 | 4.80049 | 17207 ft | 376 kts | 293° |
| 2026-04-30 22:19 | 45.60026 | 4.76611 | 17816 ft | 379 kts | 293° |
| 2026-04-30 22:19 | 45.62149 | 4.69634 | 18947 ft | 386 kts | 293° |
| 2026-04-30 22:20 | 45.63225 | 4.66105 | 19486 ft | 389 kts | 293° |
| 2026-04-30 22:20 | 45.65385 | 4.59001 | 20553 ft | 395 kts | 293° |
| 2026-04-30 22:20 | 45.66484 | 4.55383 | 21074 ft | 398 kts | 293° |
| 2026-04-30 22:21 | 45.67590 | 4.51732 | 21606 ft | 401 kts | 292° |
| 2026-04-30 22:21 | 45.68700 | 4.48055 | 22126 ft | 404 kts | 293° |
| 2026-04-30 22:21 | 45.69818 | 4.44344 | 22628 ft | 408 kts | 292° |
| 2026-04-30 22:21 | 45.70943 | 4.40603 | 23137 ft | 411 kts | 292° |
| 2026-04-30 22:22 | 45.72077 | 4.36831 | 23648 ft | 413 kts | 292° |
| 2026-04-30 22:22 | 45.73191 | 4.33137 | 24716 ft | 394 kts | 292° |
| 2026-04-30 22:22 | 45.74247 | 4.29636 | 25899 ft | 373 kts | 292° |
| 2026-04-30 22:22 | 45.75250 | 4.26311 | 26975 ft | 356 kts | 292° |
| 2026-04-30 22:23 | 45.76221 | 4.23073 | 27612 ft | 353 kts | 292° |
| 2026-04-30 22:23 | 45.77184 | 4.19846 | 28056 ft | 353 kts | 292° |
| 2026-04-30 22:23 | 45.78163 | 4.16565 | 28201 ft | 364 kts | 292° |
| 2026-04-30 22:23 | 45.79111 | 4.13140 | 28217 ft | 376 kts | 286° |
| 2026-04-30 22:24 | 45.79770 | 4.09451 | 28218 ft | 390 kts | 281° |
| 2026-04-30 22:24 | 45.80371 | 4.05584 | 28218 ft | 404 kts | 281° |
| 2026-04-30 22:24 | 45.81617 | 3.97647 | 28214 ft | 414 kts | 281° |
| 2026-04-30 22:25 | 45.82891 | 3.89577 | 28218 ft | 415 kts | 281° |
| 2026-04-30 22:25 | 45.84156 | 3.81487 | 28217 ft | 416 kts | 281° |
| 2026-04-30 22:26 | 45.86038 | 3.69320 | 28217 ft | 416 kts | 281° |
| 2026-04-30 22:27 | 45.87280 | 3.61270 | 28214 ft | 416 kts | 281° |
| 2026-04-30 22:27 | 45.89175 | 3.49109 | 28202 ft | 415 kts | 282° |
| 2026-04-30 22:28 | 45.91138 | 3.36985 | 28203 ft | 415 kts | 282° |
| 2026-04-30 22:29 | 45.93709 | 3.20858 | 28202 ft | 416 kts | 281° |
| 2026-04-30 22:31 | 45.98181 | 2.92383 | 28201 ft | 418 kts | 281° |
| 2026-04-30 22:32 | 46.00415 | 2.80345 | 28195 ft | 419 kts | 294° |
| 2026-04-30 22:32 | 46.03156 | 2.72911 | 28205 ft | 420 kts | 297° |
| 2026-04-30 22:33 | 46.10041 | 2.54376 | 28198 ft | 421 kts | 297° |
| 2026-04-30 22:35 | 46.16940 | 2.35726 | 28198 ft | 422 kts | 297° |
| 2026-04-30 22:36 | 46.22774 | 2.20988 | 27936 ft | 423 kts | 309° |
| 2026-04-30 22:36 | 46.24634 | 2.17687 | 27378 ft | 421 kts | 309° |
| 2026-04-30 22:37 | 46.30175 | 2.08112 | 25997 ft | 411 kts | 310° |
| 2026-04-30 22:37 | 46.32006 | 2.04948 | 25529 ft | 408 kts | 309° |
| 2026-04-30 22:37 | 46.35621 | 1.98643 | 24551 ft | 406 kts | 310° |
| 2026-04-30 22:38 | 46.39200 | 1.92341 | 23495 ft | 404 kts | 309° |
| 2026-04-30 22:38 | 46.42761 | 1.86079 | 22464 ft | 400 kts | 309° |
| 2026-04-30 22:39 | 46.44526 | 1.82975 | 21964 ft | 397 kts | 309° |
| 2026-04-30 22:39 | 46.49752 | 1.73765 | 20566 ft | 389 kts | 309° |
| 2026-04-30 22:40 | 46.54869 | 1.64715 | 19249 ft | 381 kts | 309° |
| 2026-04-30 22:41 | 46.59840 | 1.55888 | 17877 ft | 375 kts | 309° |
| 2026-04-30 22:41 | 46.63112 | 1.50061 | 16806 ft | 369 kts | 309° |
| 2026-04-30 22:42 | 46.69492 | 1.38659 | 14974 ft | 359 kts | 308° |
| 2026-04-30 22:43 | 46.72632 | 1.33035 | 14170 ft | 355 kts | 308° |
| 2026-04-30 22:43 | 46.75730 | 1.27472 | 13240 ft | 351 kts | 308° |
| 2026-04-30 22:44 | 46.78691 | 1.22154 | 12376 ft | 324 kts | 308° |
| 2026-04-30 22:45 | 46.83979 | 1.12614 | 10898 ft | 284 kts | 308° |
| 2026-04-30 22:45 | 46.86056 | 1.08876 | 10242 ft | 289 kts | 306° |
| 2026-04-30 22:46 | 46.87499 | 1.02593 | 9325 ft | 281 kts | 266° |
| 2026-04-30 22:47 | 46.85774 | 0.92634 | 7910 ft | 274 kts | 251° |
| 2026-04-30 22:47 | 46.84710 | 0.87353 | 7123 ft | 272 kts | 251° |
| 2026-04-30 22:48 | 46.83642 | 0.82069 | 6307 ft | 271 kts | 252° |
| 2026-04-30 22:49 | 46.82066 | 0.74339 | 4888 ft | 251 kts | 252° |
| 2026-04-30 22:49 | 46.80667 | 0.67469 | 3760 ft | 223 kts | 252° |
| 2026-04-30 22:50 | 46.78915 | 0.58949 | 3060 ft | 218 kts | 252° |
| 2026-04-30 22:51 | 46.78043 | 0.54716 | 3007 ft | 218 kts | 251° |
| 2026-04-30 22:51 | 46.77164 | 0.50480 | 3007 ft | 218 kts | 251° |
| 2026-04-30 22:52 | 46.76725 | 0.48361 | 3008 ft | 218 kts | 251° |
| 2026-04-30 22:52 | 46.75133 | 0.44777 | 3009 ft | 215 kts | 211° |
| 2026-04-30 22:53 | 46.72560 | 0.42553 | 3009 ft | 210 kts | 210° |
| 2026-04-30 22:53 | 46.70181 | 0.40505 | 2845 ft | 196 kts | 210° |
| 2026-04-30 22:53 | 46.69028 | 0.39514 | 2549 ft | 187 kts | 210° |
| 2026-04-30 22:54 | 46.66942 | 0.37726 | 2065 ft | 159 kts | 210° |
| 2026-04-30 22:55 | 46.64393 | 0.35540 | 1488 ft | 135 kts | 210° |
| 2026-04-30 22:55 | 46.62779 | 0.34152 | 1127 ft | 137 kts | 210° |
| 2026-04-30 22:56 | 46.61128 | 0.32746 | 775 ft | 138 kts | 210° |
| 2026-04-30 22:56 | 46.58900 | 0.30815 | 427 ft | 61 kts | 210° |
| 2026-04-30 22:57 | 46.58675 | 0.30818 | 426 ft | 13 kts | 126° |
| 2026-04-30 22:57 | 46.58626 | 0.30922 | 427 ft | 2 kts | 116° |
| 2026-04-30 22:58 | 46.58625 | 0.30943 | 425 ft | 2 kts | 90° |
| 2026-04-30 22:59 | 46.58668 | 0.31041 | 423 ft | 3 kts | 136° |
| 2026-04-30 22:59 | 46.58634 | 0.31055 | 424 ft | 2 kts | 241° |